Flight Number: EUR1140 Duration: 2:00
Departure: Frankfurt Airport (EDDF) at 07:45 Distance: 728 Nm
Arrival: Skopje Airport (LWSK) at 09:45 Equipment: A321

Weather Information
Frankfurt / M-Flughafen, Germany (EDDF) 50-03N 008-36E 113M Feb 19, 2018 - 02:50 AM EST / 2018.02.19 0750 UTC
Wind: from the ENE (070 degrees) at 6 MPH (5 KT):0
Visibility: greater than 7 mile(s):0 Temperature: 30 F (-1 C)
Windchill: 23 F (-5 C):1 Dew Point: 26 F (-3 C) Relative Humidity: 86% Pressure (altimeter): 30.18 in. Hg (1022 hPa)
ob: EDDF 190750Z 07005KT CAVOK M01/M03 Q1022 R88/15//95 NOSIG cycle: 8
Sunrise: 06:31 Sunset: 16:47 (UTC)

Skopje-Petrovec, Macedonia, The Republic of (LWSK) 41-58N 021-39E 239M Feb 19, 2018 - 03:00 AM EST / 2018.02.19 0800 UTC
Wind: from the NE (040 degrees) at 7 MPH (6 KT):0
Visibility: greater than 7 mile(s):0
Sky conditions: overcast Weather: drizzle Temperature: 37 F (3 C) Dew Point: 33 F (1 C) Relative Humidity: 86% Pressure (altimeter): 30.09 in. Hg (1019 hPa)
ob: LWSK 190800Z 04006KT 9999 DZ BKN015 OVC033 03/01 Q1019 NOSIG cycle: 8
Sunrise: 05:26 Sunset: 16:08 (UTC)

TAF:2018/02/19 06:42 TAF LWSK 190530Z 1906/2006 03006KT 9999 SCT020 BKN040 TEMPO 1906/2004 RA SCT015 OVC033

Previous Pireps for this route
Date Aircraft Flight time Fuel used Landing rate On time
2012-11-14A32102.1912307-113No
2013-02-27A32102.2018560-524Yes
2013-08-03A32102.2724023-1226No
2014-04-18A32102.0212273-162Yes
2014-07-08A32101.5911689-213Yes
2015-08-24A32102.0511655-189Yes
2016-12-29B73702.0911623-3Charter
(pireps marked green are flown by you)

Route map